Time;durP1;ratioP1;P1;durP2;ratioP2;P2;SDS_P1;SDS_P2;PMS_P1;PMS_P2;Temp;Humidity;BMP_temperature;BMP_pressure;BME280_temperature;BME280_humidity;BME280_pressure;Samples;Min_cycle;Max_cycle;Signal;HPM_P1;HPM_P2
2022/11/04 00:02:13;;;;;;;23.92;11.52;;;17.70;59.70;;;;;;5018359;28;20211;-67
2022/11/04 00:04:40;;;;;;;16.77;10.73;;;17.70;59.60;;;;;;5018233;28;20251;-67
2022/11/04 00:08:22;;;;;;;15.90;10.60;;;17.70;59.60;;;;;;5018240;28;20200;-67
2022/11/04 00:09:55;;;;;;;18.65;9.80;;;17.70;59.60;;;;;;5018243;28;20673;-67
2022/11/04 00:12:24;;;;;;;20.73;9.93;;;17.70;60.20;;;;;;5019120;28;20567;-67
2022/11/04 00:14:51;;;;;;;16.15;9.88;;;17.70;59.60;;;;;;5018225;28;20199;-67
2022/11/04 00:17:23;;;;;;;17.27;9.63;;;17.70;59.60;;;;;;5018199;28;20220;-67
2022/11/04 00:30:55;;;;;;;13.88;9.45;;;17.70;59.70;;;;;;5035709;28;20176;-67
2022/11/04 00:33:24;;;;;;;13.23;8.38;;;17.70;60.40;;;;;;5035820;28;20222;-67
2022/11/04 00:35:52;;;;;;;17.08;9.80;;;17.70;59.70;;;;;;5017863;28;20192;-67
2022/11/04 00:38:19;;;;;;;15.52;8.98;;;17.70;59.70;;;;;;5017715;28;20227;-67
2022/11/04 00:40:47;;;;;;;13.63;9.23;;;17.70;59.70;;;;;;5018945;28;20246;-67
2022/11/04 00:43:14;;;;;;;13.05;8.68;;;17.60;59.60;;;;;;5017325;28;20673;-67
2022/11/04 00:45:42;;;;;;;15.38;8.63;;;17.60;59.70;;;;;;5018147;28;20216;-67
2022/11/04 00:48:09;;;;;;;12.70;8.55;;;17.60;59.70;;;;;;5017370;28;20215;-67
2022/11/04 00:50:36;;;;;;;15.32;9.23;;;17.60;59.70;;;;;;5017530;28;20196;-67
2022/11/04 00:53:03;;;;;;;13.40;7.85;;;17.60;59.70;;;;;;5017826;28;20211;-67
2022/11/04 00:55:30;;;;;;;15.85;8.70;;;17.60;59.70;;;;;;5017452;28;20734;-67
2022/11/04 00:57:59;;;;;;;12.07;7.55;;;17.60;59.70;;;;;;5035336;28;20216;-67
2022/11/04 01:00:26;;;;;;;13.35;8.05;;;17.60;60.40;;;;;;5017650;28;20295;-67
2022/11/04 01:02:53;;;;;;;13.45;7.75;;;17.60;59.90;;;;;;5017986;28;20204;-67
2022/11/04 01:05:20;;;;;;;13.10;7.63;;;17.60;59.70;;;;;;5017438;28;20299;-67
2022/11/04 01:07:47;;;;;;;11.57;7.75;;;17.60;59.70;;;;;;5017330;28;20223;-67
2022/11/04 01:10:14;;;;;;;14.10;7.80;;;17.60;59.70;;;;;;5017399;28;20200;-67
2022/11/04 01:12:41;;;;;;;12.77;8.38;;;17.60;59.70;;;;;;5036041;28;20195;-67
2022/11/04 01:15:10;;;;;;;12.25;7.50;;;17.60;59.70;;;;;;5017831;28;20200;-67
2022/11/04 01:17:38;;;;;;;13.70;8.07;;;17.60;59.70;;;;;;5016806;28;20319;-67
2022/11/04 01:20:06;;;;;;;13.05;7.63;;;17.60;59.80;;;;;;5034731;28;20651;-67
2022/11/04 01:22:33;;;;;;;10.75;7.20;;;17.60;59.80;;;;;;5017458;28;20192;-67
2022/11/04 01:25:00;;;;;;;9.15;6.78;;;17.60;59.70;;;;;;5017431;28;20220;-67
2022/11/04 01:27:27;;;;;;;12.95;7.65;;;17.60;59.70;;;;;;5034402;28;20254;-67
2022/11/04 01:29:54;;;;;;;10.73;7.30;;;17.60;59.80;;;;;;5017913;28;20207;-67
2022/11/04 01:32:22;;;;;;;10.52;6.95;;;17.50;59.70;;;;;;5034419;28;20646;-67
2022/11/04 01:34:49;;;;;;;10.65;7.28;;;17.50;59.70;;;;;;5016669;28;20199;-67
2022/11/04 01:37:16;;;;;;;13.85;7.95;;;17.50;59.70;;;;;;5034590;28;20208;-67
2022/11/04 01:39:44;;;;;;;10.95;6.95;;;17.50;59.70;;;;;;5016973;28;20199;-67
2022/11/04 01:42:13;;;;;;;9.77;6.80;;;17.50;59.70;;;;;;5016793;28;20216;-67
2022/11/04 01:44:49;;;;;;;11.05;7.18;;;17.50;59.70;;;;;;5016486;28;20216;-67
2022/11/04 01:47:17;;;;;;;11.07;7.00;;;17.50;59.70;;;;;;5016407;28;20231;-67
2022/11/04 01:49:47;;;;;;;10.70;6.80;;;17.50;59.80;;;;;;5034298;28;20183;-67
2022/11/04 01:52:16;;;;;;;11.55;7.32;;;17.50;59.80;;;;;;5016432;28;20623;-67
2022/11/04 01:54:43;;;;;;;11.13;7.18;;;17.50;59.80;;;;;;5015539;28;20682;-67
2022/11/04 01:57:14;;;;;;;11.77;7.18;;;17.50;59.80;;;;;;5016204;28;20223;-67
2022/11/04 01:59:41;;;;;;;12.15;7.05;;;17.50;59.80;;;;;;5016847;28;20199;-67
2022/11/04 02:02:08;;;;;;;10.88;6.70;;;17.50;59.90;;;;;;5033993;28;20196;-67
2022/11/04 02:04:35;;;;;;;11.32;6.63;;;17.50;59.80;;;;;;5017251;28;20218;-67
2022/11/04 02:07:05;;;;;;;7.47;5.53;;;17.50;59.80;;;;;;5016028;28;20200;-67
2022/11/04 02:09:33;;;;;;;9.88;6.88;;;17.50;59.80;;;;;;5016213;28;20200;-67
2022/11/04 02:14:45;;;;;;;9.07;5.90;;;17.40;59.80;;;;;;5016251;28;20184;-66
2022/11/04 02:17:20;;;;;;;11.63;6.63;;;17.40;59.80;;;;;;5016401;28;20330;-66
2022/11/04 02:20:15;;;;;;;7.65;5.63;;;17.40;59.90;;;;;;5016051;28;20250;-66
2022/11/04 02:23:15;;;;;;;7.45;5.45;;;17.40;59.80;;;;;;5011262;28;20204;-66
2022/11/04 02:26:02;;;;;;;9.38;5.88;;;17.50;59.80;;;;;;5016704;28;20219;-66
2022/11/04 02:29:13;;;;;;;8.85;5.68;;;17.40;59.80;;;;;;5033510;28;20709;-66
2022/11/04 02:31:42;;;;;;;9.00;5.30;;;17.40;59.90;;;;;;4956664;28;20198;-66
2022/11/04 02:34:11;;;;;;;8.68;5.95;;;17.40;59.90;;;;;;5008549;28;20199;-66
2022/11/04 02:36:41;;;;;;;7.43;5.65;;;17.40;59.90;;;;;;5016373;28;20196;-66
2022/11/04 02:39:11;;;;;;;9.35;6.15;;;17.40;59.90;;;;;;4999868;28;20235;-66
2022/11/04 02:41:39;;;;;;;10.05;6.00;;;17.40;60.00;;;;;;5015838;28;20208;-66
2022/11/04 02:44:16;;;;;;;9.73;6.15;;;17.40;59.90;;;;;;5016060;28;20560;-66
2022/11/04 02:46:46;;;;;;;11.48;6.10;;;17.30;59.90;;;;;;5015815;28;20206;-66
2022/11/04 02:49:14;;;;;;;7.95;5.40;;;17.40;59.90;;;;;;5015537;28;20219;-66
2022/11/04 02:51:43;;;;;;;8.63;5.72;;;17.40;59.90;;;;;;5015622;28;20279;-66
2022/11/04 02:54:12;;;;;;;8.23;5.75;;;17.30;59.90;;;;;;5015645;28;20203;-66
2022/11/04 02:56:42;;;;;;;9.75;6.07;;;17.30;60.00;;;;;;5015615;28;20651;-66
2022/11/04 02:59:12;;;;;;;8.27;5.63;;;17.30;59.90;;;;;;5015669;28;20223;-66
2022/11/04 03:01:41;;;;;;;7.43;5.30;;;17.30;60.00;;;;;;5015592;28;20211;-66
2022/11/04 03:04:13;;;;;;;9.35;5.50;;;17.30;60.00;;;;;;5015674;28;20207;-66
2022/11/04 03:06:40;;;;;;;8.15;5.57;;;17.30;60.00;;;;;;5017193;28;20227;-66
2022/11/04 03:09:07;;;;;;;7.63;4.93;;;17.30;60.00;;;;;;5019474;28;20729;-66
2022/11/04 03:11:33;;;;;;;8.20;5.55;;;17.30;60.00;;;;;;5019465;28;20199;-66
2022/11/04 03:14:02;;;;;;;7.57;5.60;;;17.30;60.00;;;;;;5019510;28;20200;-66
2022/11/04 03:16:32;;;;;;;7.60;5.43;;;17.30;59.90;;;;;;5024540;28;20200;-66
2022/11/04 03:19:04;;;;;;;8.80;5.57;;;17.30;60.00;;;;;;5022966;28;20259;-66
2022/11/04 03:21:33;;;;;;;7.97;5.28;;;17.30;59.90;;;;;;5022455;28;20192;-66
2022/11/04 03:24:00;;;;;;;6.32;4.65;;;17.20;60.00;;;;;;5019507;28;20536;-66
2022/11/04 03:26:29;;;;;;;6.10;4.75;;;17.30;60.00;;;;;;5019040;28;20227;-66
2022/11/04 03:29:02;;;;;;;8.15;4.68;;;17.30;60.00;;;;;;5018971;28;20310;-66
2022/11/04 03:31:32;;;;;;;5.65;4.55;;;17.30;60.00;;;;;;5036827;28;20181;-66
2022/11/04 03:33:59;;;;;;;8.80;5.57;;;17.30;60.00;;;;;;5019010;28;20210;-66
2022/11/04 03:36:29;;;;;;;7.35;5.45;;;17.20;60.00;;;;;;5018997;28;20196;-66
2022/11/04 03:38:56;;;;;;;7.65;4.78;;;17.30;60.10;;;;;;5018783;28;20216;-66
2022/11/04 03:41:24;;;;;;;7.35;4.85;;;17.30;60.10;;;;;;5019324;28;20231;-66
2022/11/04 03:43:51;;;;;;;7.20;5.10;;;17.20;60.00;;;;;;5036477;28;20192;-66
2022/11/04 03:46:18;;;;;;;6.93;4.38;;;17.20;60.00;;;;;;5018589;28;20220;-66
2022/11/04 03:48:47;;;;;;;6.47;4.97;;;17.20;60.10;;;;;;5018978;28;20294;-67
2022/11/04 03:51:14;;;;;;;7.57;5.25;;;17.20;60.00;;;;;;5036414;28;20220;-67
2022/11/04 03:53:42;;;;;;;6.28;4.53;;;17.20;59.90;;;;;;5018593;28;20566;-67
2022/11/04 03:56:29;;;;;;;7.40;4.88;;;17.20;60.10;;;;;;5036186;28;20654;-67
2022/11/04 03:59:03;;;;;;;6.20;4.60;;;17.20;59.90;;;;;;5018409;28;20722;-67
2022/11/04 04:01:33;;;;;;;6.97;4.50;;;17.20;60.00;;;;;;5002784;28;20196;-67
2022/11/04 04:04:03;;;;;;;7.35;4.82;;;17.20;60.00;;;;;;5019587;28;20204;-67
2022/11/04 04:06:32;;;;;;;7.20;4.93;;;17.20;59.90;;;;;;5018174;28;20220;-67
2022/11/04 04:09:05;;;;;;;6.53;4.65;;;17.20;59.90;;;;;;5018242;28;20224;-67
2022/11/04 04:11:37;;;;;;;6.10;4.43;;;17.10;59.80;;;;;;5018329;28;20208;-67
2022/11/04 04:14:06;;;;;;;6.65;4.80;;;17.20;60.00;;;;;;5036117;28;20548;-67
2022/11/04 04:16:34;;;;;;;5.57;4.13;;;17.10;60.00;;;;;;5018263;28;20219;-67
2022/11/04 04:19:02;;;;;;;6.85;4.55;;;17.20;60.10;;;;;;5017499;28;20208;-67
2022/11/04 04:21:32;;;;;;;7.10;4.30;;;17.10;59.90;;;;;;5018059;28;20197;-67
2022/11/04 04:29:29;;;;;;;6.35;4.72;;;17.10;59.90;;;;;;5017949;28;20667;-67
2022/11/04 04:31:57;;;;;;;6.68;4.78;;;17.20;60.10;;;;;;5017914;28;20204;-67
2022/11/04 04:34:25;;;;;;;5.68;4.68;;;17.10;60.00;;;;;;5017900;28;20207;-67
2022/11/04 04:36:55;;;;;;;6.72;4.40;;;17.20;60.00;;;;;;5017636;28;20706;-67
2022/11/04 04:45:02;;;;;;;6.18;4.30;;;17.30;59.80;;;;;;5017502;28;20220;-67
2022/11/04 04:47:44;;;;;;;7.32;4.35;;;17.30;59.70;;;;;;5035434;28;20223;-67
2022/11/04 04:50:13;;;;;;;7.63;4.57;;;17.40;59.60;;;;;;5016027;28;20208;-67
2022/11/04 04:52:41;;;;;;;5.22;3.75;;;17.40;59.70;;;;;;5017527;28;20196;-66
2022/11/04 04:55:11;;;;;;;5.47;3.90;;;17.40;59.60;;;;;;5017324;28;20188;-66
2022/11/04 04:57:38;;;;;;;5.13;4.03;;;17.40;59.50;;;;;;5035220;28;20231;-66
2022/11/04 05:00:07;;;;;;;4.60;3.80;;;17.40;59.50;;;;;;5017254;28;20232;-66
2022/11/04 05:02:34;;;;;;;7.15;4.32;;;17.40;59.50;;;;;;5034925;28;20192;-66
2022/11/04 05:05:01;;;;;;;5.50;4.28;;;17.40;59.50;;;;;;5000906;28;20651;-66
2022/11/04 05:07:27;;;;;;;4.88;4.00;;;17.40;59.50;;;;;;5017082;28;20219;-66
2022/11/04 05:09:54;;;;;;;4.82;3.50;;;17.40;59.30;;;;;;5017106;28;20203;-66
2022/11/04 05:12:23;;;;;;;4.80;3.88;;;17.40;59.30;;;;;;5017142;28;20200;-66
2022/11/04 05:14:50;;;;;;;5.25;3.63;;;17.40;59.20;;;;;;5017980;28;20194;-66
2022/11/04 05:17:17;;;;;;;5.82;3.40;;;17.40;59.20;;;;;;5017048;28;20227;-66
2022/11/04 05:19:44;;;;;;;4.03;3.55;;;17.40;59.20;;;;;;5035313;28;20195;-66
2022/11/04 05:22:12;;;;;;;4.70;3.47;;;17.40;59.10;;;;;;5034646;28;20188;-66
2022/11/04 05:24:39;;;;;;;4.97;3.92;;;17.30;58.90;;;;;;5016838;28;20730;-66
2022/11/04 05:27:06;;;;;;;5.72;3.90;;;17.30;59.00;;;;;;5016752;28;20220;-66
2022/11/04 05:29:34;;;;;;;4.32;3.38;;;17.40;59.10;;;;;;5016063;28;20207;-66
2022/11/04 05:32:01;;;;;;;4.00;3.33;;;17.30;59.10;;;;;;5016753;28;20651;-66
2022/11/04 05:34:28;;;;;;;4.15;3.38;;;17.30;59.10;;;;;;5017084;28;20200;-66
2022/11/04 05:36:55;;;;;;;5.18;3.67;;;17.30;59.10;;;;;;5034434;28;20184;-67
2022/11/04 05:39:22;;;;;;;4.28;3.33;;;17.30;59.10;;;;;;5000621;28;20223;-66
2022/11/04 05:41:50;;;;;;;5.13;3.40;;;17.30;59.20;;;;;;5016591;28;20206;-66
2022/11/04 05:44:17;;;;;;;5.57;4.32;;;17.30;59.30;;;;;;5000511;28;20192;-66
2022/11/04 05:46:45;;;;;;;4.72;3.22;;;17.20;59.30;;;;;;5016506;28;20220;-66
2022/11/04 05:49:13;;;;;;;4.22;3.53;;;17.30;59.30;;;;;;5016469;28;20255;-66
2022/11/04 05:51:40;;;;;;;4.78;3.30;;;17.30;59.30;;;;;;5016855;28;20552;-66
2022/11/04 05:54:08;;;;;;;4.07;3.22;;;17.20;59.50;;;;;;5016748;28;20211;-66
2022/11/04 05:56:34;;;;;;;4.57;3.40;;;17.20;59.40;;;;;;5017222;28;20184;-66
2022/11/04 05:59:02;;;;;;;4.18;3.25;;;17.20;59.50;;;;;;5016484;28;20589;-66
2022/11/04 06:01:31;;;;;;;3.83;3.05;;;17.20;59.30;;;;;;5016507;28;20200;-66
2022/11/04 06:04:01;;;;;;;5.25;3.22;;;17.20;59.30;;;;;;5016546;28;20196;-66
2022/11/04 06:06:30;;;;;;;4.47;3.28;;;17.10;59.40;;;;;;5016153;28;20220;-66
2022/11/04 06:08:57;;;;;;;4.07;3.15;;;17.10;59.50;;;;;;5016339;28;20694;-66
2022/11/04 06:11:25;;;;;;;5.13;3.42;;;17.10;59.30;;;;;;5016201;28;20200;-67
2022/11/04 06:13:53;;;;;;;3.85;2.90;;;17.10;59.50;;;;;;5016155;28;20669;-67
2022/11/04 06:16:20;;;;;;;4.68;2.90;;;17.10;59.40;;;;;;5016008;28;20242;-67
2022/11/04 06:18:48;;;;;;;8.35;3.55;;;17.10;60.50;;;;;;5016057;28;20228;-67
2022/11/04 06:21:24;;;;;;;5.03;3.08;;;17.10;60.30;;;;;;5016145;28;20203;-67
2022/11/04 06:23:52;;;;;;;5.30;2.90;;;17.10;60.40;;;;;;5016004;28;20257;-67
2022/11/04 06:26:20;;;;;;;4.55;2.97;;;17.10;60.70;;;;;;5016018;28;20219;-67
2022/11/04 06:28:47;;;;;;;4.78;3.17;;;17.10;60.80;;;;;;4999814;28;20219;-66
2022/11/04 06:31:15;;;;;;;4.60;3.10;;;17.10;61.00;;;;;;5033637;28;20191;-66
2022/11/04 06:33:42;;;;;;;5.55;2.83;;;17.10;61.00;;;;;;5033890;28;20201;-66
2022/11/04 06:36:11;;;;;;;4.22;3.38;;;17.10;61.10;;;;;;5016026;28;20192;-66
2022/11/04 06:38:39;;;;;;;3.63;2.83;;;17.10;61.00;;;;;;5033657;28;20258;-67
2022/11/04 06:41:07;;;;;;;4.57;3.30;;;17.10;61.00;;;;;;5016661;28;20195;-66
2022/11/04 06:43:34;;;;;;;4.20;2.97;;;17.10;61.00;;;;;;5037936;28;20196;-66
2022/11/04 06:46:01;;;;;;;3.35;2.70;;;17.10;61.20;;;;;;5019649;28;20628;-66
2022/11/04 06:48:29;;;;;;;4.10;3.03;;;17.10;61.40;;;;;;5019886;28;20220;-66
2022/11/04 06:50:57;;;;;;;4.10;2.60;;;17.10;61.30;;;;;;5019818;28;20206;-66
2022/11/04 06:53:24;;;;;;;5.07;2.92;;;17.10;61.00;;;;;;5037583;28;20200;-66
2022/11/04 06:55:52;;;;;;;3.20;2.78;;;17.10;60.70;;;;;;5019875;28;20195;-66
2022/11/04 06:58:19;;;;;;;3.88;2.67;;;17.10;61.40;;;;;;5019598;28;20235;-66
2022/11/04 07:00:51;;;;;;;4.57;2.42;;;17.10;60.50;;;;;;5019648;28;20287;-66
2022/11/04 07:03:18;;;;;;;3.17;2.50;;;17.00;60.30;;;;;;5037580;28;20267;-66
2022/11/04 07:05:45;;;;;;;4.00;2.92;;;17.10;60.10;;;;;;5019515;28;20216;-66
2022/11/04 07:08:12;;;;;;;4.70;2.97;;;17.10;60.40;;;;;;5037281;28;20212;-66
2022/11/04 07:10:39;;;;;;;3.58;2.83;;;17.00;60.00;;;;;;5019547;28;20679;-66
2022/11/04 07:13:07;;;;;;;5.70;2.80;;;17.00;60.10;;;;;;5019838;28;20200;-66
2022/11/04 07:15:34;;;;;;;3.55;2.70;;;17.10;60.20;;;;;;5019846;28;20204;-67
2022/11/04 07:18:01;;;;;;;4.53;3.00;;;17.00;60.00;;;;;;5020182;28;20255;-67
2022/11/04 07:20:28;;;;;;;4.00;2.78;;;17.10;60.00;;;;;;5019631;28;20196;-67
2022/11/04 07:22:55;;;;;;;3.63;2.80;;;17.10;59.90;;;;;;5020039;28;20207;-66
2022/11/04 07:25:23;;;;;;;3.67;2.60;;;17.10;59.70;;;;;;5019336;28;20681;-67
2022/11/04 07:27:50;;;;;;;3.42;2.65;;;17.20;59.60;;;;;;5019397;28;20232;-67
2022/11/04 07:30:19;;;;;;;3.33;2.70;;;17.20;59.50;;;;;;5019527;28;20255;-67
2022/11/04 07:32:46;;;;;;;4.13;2.70;;;17.20;59.50;;;;;;5019015;28;20615;-67
2022/11/04 07:35:14;;;;;;;3.78;2.63;;;17.10;59.30;;;;;;5018999;28;20203;-67
2022/11/04 07:37:41;;;;;;;4.85;2.60;;;17.10;59.30;;;;;;5018906;28;20216;-67
2022/11/04 07:40:09;;;;;;;3.83;2.70;;;17.20;59.40;;;;;;5019043;28;20210;-67
2022/11/04 07:42:37;;;;;;;3.00;2.75;;;17.10;59.40;;;;;;5036736;28;20717;-67
2022/11/04 07:45:08;;;;;;;2.92;2.63;;;17.20;59.40;;;;;;5020367;28;20539;-67
2022/11/04 07:47:36;;;;;;;3.22;2.50;;;17.20;59.50;;;;;;5018458;28;20229;-67
2022/11/04 07:50:04;;;;;;;2.92;2.63;;;17.20;59.40;;;;;;5018685;28;20196;-67
2022/11/04 07:52:31;;;;;;;3.10;2.40;;;17.20;59.40;;;;;;4985590;28;20647;-66
2022/11/04 07:54:58;;;;;;;3.72;2.72;;;17.20;59.50;;;;;;5036449;28;20192;-66
2022/11/04 07:57:25;;;;;;;2.83;2.30;;;17.20;59.40;;;;;;5018518;28;20582;-66
2022/11/04 07:59:52;;;;;;;3.05;2.40;;;17.20;59.30;;;;;;5018627;28;20196;-66
2022/11/04 08:02:20;;;;;;;3.25;2.60;;;17.20;59.40;;;;;;5002308;28;20204;-66
2022/11/04 08:04:49;;;;;;;2.67;2.45;;;17.20;59.30;;;;;;5018497;28;20200;-66
2022/11/04 08:07:16;;;;;;;3.65;2.55;;;17.20;59.30;;;;;;5018606;28;20235;-66
2022/11/04 08:09:43;;;;;;;3.78;2.35;;;17.20;59.40;;;;;;5018412;28;20682;-66
2022/11/04 08:12:10;;;;;;;3.13;2.67;;;17.20;59.40;;;;;;5018634;28;20204;-66
2022/11/04 08:14:37;;;;;;;4.55;2.47;;;17.30;59.40;;;;;;5018243;28;20200;-66
2022/11/04 08:17:04;;;;;;;3.25;2.30;;;17.30;59.60;;;;;;5018620;28;20193;-66
2022/11/04 08:19:31;;;;;;;4.78;2.53;;;17.30;59.50;;;;;;5018071;28;20204;-66
2022/11/04 08:21:59;;;;;;;3.80;2.42;;;17.30;59.70;;;;;;5035925;28;20713;-66
2022/11/04 08:24:26;;;;;;;3.15;2.25;;;17.30;59.60;;;;;;5018442;28;20216;-67
2022/11/04 08:26:53;;;;;;;3.95;2.58;;;17.40;59.70;;;;;;5035977;28;20257;-67
2022/11/04 08:29:20;;;;;;;3.88;2.40;;;17.40;59.50;;;;;;5018213;28;20204;-67
2022/11/04 08:31:47;;;;;;;3.17;2.53;;;17.40;59.40;;;;;;5018083;28;20203;-67
2022/11/04 08:34:17;;;;;;;2.75;2.28;;;17.50;59.40;;;;;;5018557;28;20215;-67
2022/11/04 08:36:44;;;;;;;2.88;2.30;;;17.50;59.30;;;;;;5018115;28;20204;-67
2022/11/04 08:39:12;;;;;;;2.78;2.38;;;17.60;59.20;;;;;;5017862;28;20227;-67
2022/11/04 08:41:40;;;;;;;2.60;2.40;;;17.60;59.10;;;;;;5018025;28;20200;-67
2022/11/04 08:44:07;;;;;;;2.83;2.60;;;17.60;58.90;;;;;;5035861;28;20211;-67
2022/11/04 08:46:35;;;;;;;3.78;2.85;;;17.70;58.90;;;;;;5017842;28;20678;-67
2022/11/04 08:49:02;;;;;;;4.18;3.25;;;17.70;58.70;;;;;;5035780;28;20216;-67
2022/11/04 08:51:30;;;;;;;3.47;2.67;;;17.70;58.80;;;;;;5017562;28;20204;-67
2022/11/04 08:53:58;;;;;;;3.97;3.08;;;17.70;58.60;;;;;;5017506;28;20200;-67
2022/11/04 08:56:27;;;;;;;4.75;2.50;;;17.70;58.60;;;;;;5017531;28;20208;-67
2022/11/04 08:58:55;;;;;;;3.35;2.47;;;17.80;58.70;;;;;;5035206;28;20208;-67
2022/11/04 09:01:22;;;;;;;3.00;2.70;;;17.80;58.70;;;;;;5017930;28;20246;-67
2022/11/04 09:03:49;;;;;;;2.92;2.60;;;17.80;58.60;;;;;;5035229;28;20262;-67
2022/11/04 09:06:19;;;;;;;3.05;2.63;;;17.80;58.50;;;;;;5034884;28;20220;-67
2022/11/04 09:08:46;;;;;;;3.30;2.72;;;17.80;58.40;;;;;;5017305;28;20356;-67
2022/11/04 09:11:14;;;;;;;3.38;2.45;;;17.80;58.20;;;;;;5017232;28;20204;-67
2022/11/04 09:13:42;;;;;;;4.22;2.50;;;17.90;58.50;;;;;;5034867;28;20204;-67
2022/11/04 09:16:09;;;;;;;2.65;2.17;;;17.80;58.30;;;;;;5034850;28;20192;-67
2022/11/04 09:18:37;;;;;;;3.67;2.53;;;17.80;58.40;;;;;;5017024;28;20757;-67
2022/11/04 09:21:05;;;;;;;4.93;2.40;;;17.80;58.40;;;;;;5034656;28;20192;-67
2022/11/04 09:23:32;;;;;;;3.20;2.50;;;17.80;58.10;;;;;;5017021;28;20223;-67
2022/11/04 09:26:03;;;;;;;4.65;2.53;;;17.80;58.20;;;;;;5016968;28;20207;-67
2022/11/04 09:28:31;;;;;;;4.43;2.45;;;17.90;58.30;;;;;;5016775;28;20215;-67
2022/11/04 09:30:59;;;;;;;3.13;2.45;;;17.80;58.00;;;;;;5016745;28;20243;-67
2022/11/04 09:33:26;;;;;;;2.50;2.17;;;17.80;57.90;;;;;;5016743;28;20575;-67
2022/11/04 09:35:57;;;;;;;2.92;2.10;;;17.90;57.90;;;;;;5017123;28;20274;-67
2022/11/04 09:38:24;;;;;;;2.53;1.88;;;17.90;57.80;;;;;;5016759;28;20266;-67
2022/11/04 09:40:51;;;;;;;2.50;2.17;;;17.90;57.80;;;;;;5016664;28;20205;-67
2022/11/04 09:43:26;;;;;;;3.38;2.30;;;17.90;57.90;;;;;;5016819;28;20192;-66
2022/11/04 09:45:53;;;;;;;3.47;2.20;;;17.90;58.00;;;;;;5017490;28;20172;-66
2022/11/04 09:48:25;;;;;;;3.15;2.85;;;18.00;58.00;;;;;;5000291;28;20624;-66
2022/11/04 09:50:53;;;;;;;4.35;3.70;;;18.00;57.90;;;;;;5016512;28;20200;-66
2022/11/04 09:53:22;;;;;;;3.35;2.80;;;18.10;58.00;;;;;;5016505;28;20295;-66
2022/11/04 09:55:52;;;;;;;2.58;2.10;;;18.10;58.10;;;;;;5016347;28;20290;-66
2022/11/04 09:58:19;;;;;;;2.67;2.08;;;18.10;57.90;;;;;;5016286;28;20278;-66
2022/11/04 10:00:49;;;;;;;3.78;2.40;;;18.10;57.80;;;;;;5016655;28;20200;-66
2022/11/04 10:03:24;;;;;;;3.35;2.00;;;18.20;57.40;;;;;;5016371;28;20203;-66
2022/11/04 10:05:57;;;;;;;2.58;2.00;;;18.20;57.40;;;;;;5016350;28;20202;-67
2022/11/04 10:08:35;;;;;;;2.63;1.80;;;18.30;57.50;;;;;;5036486;28;20298;-67
2022/11/04 10:11:05;;;;;;;2.78;2.13;;;18.30;57.50;;;;;;5018254;28;20200;-67
2022/11/04 10:13:42;;;;;;;2.38;2.10;;;18.30;57.20;;;;;;5016618;28;20200;-67
2022/11/04 10:16:14;;;;;;;2.72;2.10;;;18.40;57.20;;;;;;5015599;28;20708;-67
2022/11/04 10:19:00;;;;;;;3.47;2.25;;;18.40;57.10;;;;;;5016970;28;20243;-67
2022/11/04 10:21:33;;;;;;;2.60;2.30;;;18.40;57.00;;;;;;5016000;28;20229;-67
2022/11/04 10:24:08;;;;;;;4.57;2.40;;;18.40;56.80;;;;;;5016111;28;20207;-67
2022/11/04 10:26:39;;;;;;;2.50;2.30;;;18.50;56.80;;;;;;5033687;28;20234;-66
2022/11/04 10:29:07;;;;;;;2.15;1.95;;;18.50;56.80;;;;;;5016236;28;20223;-66
2022/11/04 10:31:34;;;;;;;3.33;2.30;;;18.60;56.80;;;;;;5033625;28;20191;-66
2022/11/04 10:34:04;;;;;;;1.92;1.63;;;18.60;57.00;;;;;;5015839;28;20210;-66
2022/11/04 10:36:31;;;;;;;2.28;1.90;;;18.60;56.90;;;;;;4999816;28;20207;-66
2022/11/04 10:38:59;;;;;;;2.42;1.92;;;18.60;56.50;;;;;;5015768;28;20220;-66
2022/11/04 10:41:28;;;;;;;2.67;1.95;;;18.60;56.20;;;;;;5016028;28;20192;-66
2022/11/04 10:43:57;;;;;;;2.17;1.90;;;18.70;56.50;;;;;;5015878;28;20222;-66
2022/11/04 10:46:36;;;;;;;1.95;1.75;;;18.70;56.50;;;;;;5015731;28;20647;-66
2022/11/04 10:49:11;;;;;;;2.67;2.00;;;18.70;56.60;;;;;;5015584;28;20299;-66
2022/11/04 10:51:38;;;;;;;2.67;1.95;;;18.70;56.60;;;;;;5033589;28;20255;-66
2022/11/04 10:54:07;;;;;;;2.47;2.10;;;18.80;56.60;;;;;;5015648;28;20200;-67
2022/11/04 10:56:37;;;;;;;2.95;2.03;;;18.80;56.50;;;;;;5015517;28;20238;-67
2022/11/04 10:59:13;;;;;;;2.15;1.95;;;18.80;56.50;;;;;;5015601;28;20297;-67
2022/11/04 11:01:40;;;;;;;3.13;1.80;;;18.80;56.40;;;;;;5016853;28;20550;-67
2022/11/04 11:04:12;;;;;;;1.90;1.80;;;18.80;56.50;;;;;;5015754;28;20612;-67
2022/11/04 11:06:39;;;;;;;2.60;2.08;;;18.90;56.50;;;;;;5033584;28;20176;-67
2022/11/04 11:09:13;;;;;;;2.72;2.10;;;18.90;56.30;;;;;;5016235;28;20626;-67
2022/11/04 11:11:44;;;;;;;2.72;2.00;;;18.90;56.20;;;;;;5016024;28;20200;-67
2022/11/04 11:14:18;;;;;;;2.03;1.80;;;18.80;56.30;;;;;;5034286;28;20176;-67
2022/11/04 11:16:46;;;;;;;3.10;2.00;;;18.90;56.40;;;;;;5015750;28;20196;-67
2022/11/04 11:19:20;;;;;;;2.88;2.08;;;18.90;56.40;;;;;;5016242;28;20270;-67
2022/11/04 11:21:48;;;;;;;2.72;1.70;;;18.90;56.30;;;;;;5015644;28;20192;-66
2022/11/04 11:24:20;;;;;;;2.25;1.90;;;18.90;56.20;;;;;;5015483;28;20258;-66
2022/11/04 11:26:49;;;;;;;2.35;1.83;;;18.90;56.30;;;;;;5033343;28;20187;-66
2022/11/04 11:29:20;;;;;;;2.50;1.90;;;18.90;56.10;;;;;;5036989;28;20184;-66
2022/11/04 11:31:47;;;;;;;2.58;2.00;;;18.80;56.10;;;;;;5037276;28;20187;-66
2022/11/04 11:34:16;;;;;;;2.30;1.90;;;18.80;56.10;;;;;;5036898;28;20717;-66
2022/11/04 11:36:46;;;;;;;2.78;2.00;;;18.80;56.20;;;;;;5037152;28;20192;-66
2022/11/04 11:39:15;;;;;;;3.10;1.70;;;18.80;56.30;;;;;;5018977;28;20223;-66
2022/11/04 11:41:54;;;;;;;3.15;1.80;;;18.80;56.40;;;;;;5018825;28;20235;-66
2022/11/04 11:44:26;;;;;;;2.78;1.77;;;18.80;56.30;;;;;;5019660;28;20234;-66
2022/11/04 11:46:55;;;;;;;2.92;2.13;;;18.80;56.20;;;;;;5018593;28;20231;-66
2022/11/04 11:49:27;;;;;;;1.73;1.63;;;18.80;56.20;;;;;;5036410;28;20271;-66
2022/11/04 11:51:56;;;;;;;2.20;2.00;;;18.80;56.30;;;;;;5036853;28;20275;-66
2022/11/04 11:54:28;;;;;;;2.78;1.85;;;18.80;56.30;;;;;;5018545;28;20196;-67
2022/11/04 11:56:56;;;;;;;2.53;1.80;;;18.80;56.10;;;;;;5018478;28;20612;-67
2022/11/04 11:59:26;;;;;;;2.10;1.90;;;18.80;56.10;;;;;;5036324;28;20189;-67
2022/11/04 12:02:00;;;;;;;1.88;1.67;;;18.80;56.10;;;;;;5036800;28;20541;-67
2022/11/04 12:04:28;;;;;;;2.70;1.90;;;18.80;55.90;;;;;;5036129;28;20176;-67
2022/11/04 12:07:03;;;;;;;4.72;1.90;;;18.80;56.30;;;;;;5018319;28;20200;-65
2022/11/04 12:09:35;;;;;;;1.90;1.70;;;18.80;55.80;;;;;;5019444;28;20199;-66
2022/11/04 12:12:23;;;;;;;2.40;1.70;;;18.90;55.90;;;;;;5018103;28;20195;-66
2022/11/04 12:15:04;;;;;;;2.17;1.88;;;18.90;55.70;;;;;;5019353;28;20200;-66
2022/11/04 12:17:38;;;;;;;2.00;1.60;;;18.90;55.80;;;;;;5018648;28;20220;-66
2022/11/04 12:20:20;;;;;;;1.85;1.60;;;18.90;55.70;;;;;;5018116;28;20202;-66
2022/11/04 12:22:53;;;;;;;2.60;1.50;;;19.00;55.50;;;;;;5018157;28;20631;-66
2022/11/04 12:25:22;;;;;;;3.10;1.80;;;19.00;55.70;;;;;;5018835;28;20196;-66
2022/11/04 12:27:52;;;;;;;3.05;1.77;;;19.00;55.80;;;;;;5035737;28;20278;-66
2022/11/04 12:30:20;;;;;;;2.78;1.60;;;19.00;55.80;;;;;;5018065;28;20219;-67
2022/11/04 12:32:53;;;;;;;1.90;1.63;;;19.00;55.50;;;;;;5017826;28;20200;-67
2022/11/04 12:35:31;;;;;;;1.77;1.60;;;19.00;55.30;;;;;;5017862;28;20200;-66
2022/11/04 12:38:07;;;;;;;2.00;1.70;;;19.00;55.30;;;;;;5017736;28;20313;-66
2022/11/04 12:40:38;;;;;;;2.05;1.50;;;19.00;55.30;;;;;;5017249;28;20210;-66
2022/11/04 12:43:11;;;;;;;1.50;1.40;;;19.00;55.40;;;;;;5035744;28;20180;-66
2022/11/04 12:46:00;;;;;;;2.25;1.77;;;19.00;55.50;;;;;;5017894;28;20661;-66
2022/11/04 12:48:39;;;;;;;1.58;1.48;;;19.00;55.50;;;;;;5017631;28;20258;-66
2022/11/04 12:51:09;;;;;;;2.40;1.80;;;19.10;55.50;;;;;;5017574;28;20196;-66
2022/11/04 12:54:08;;;;;;;2.45;1.58;;;19.10;55.60;;;;;;5017439;28;20196;-66
2022/11/04 12:56:37;;;;;;;2.20;1.60;;;19.00;55.50;;;;;;5017447;28;20646;-66
2022/11/04 12:59:25;;;;;;;2.03;1.60;;;19.10;55.50;;;;;;5035170;28;20212;-66
2022/11/04 13:01:54;;;;;;;1.60;1.50;;;19.00;55.40;;;;;;5017461;28;20197;-66
2022/11/04 13:04:22;;;;;;;2.30;1.60;;;19.00;55.30;;;;;;5035186;28;20535;-66
2022/11/04 13:06:51;;;;;;;2.47;1.70;;;19.10;55.40;;;;;;5017366;28;20250;-66
2022/11/04 13:09:24;;;;;;;2.42;1.70;;;19.10;55.50;;;;;;5017285;28;20223;-66
2022/11/04 13:11:52;;;;;;;2.15;1.63;;;19.10;55.50;;;;;;5017935;28;20214;-66
2022/11/04 13:14:28;;;;;;;1.65;1.52;;;19.00;55.50;;;;;;5017338;28;20655;-66
2022/11/04 13:16:56;;;;;;;1.80;1.33;;;19.00;55.40;;;;;;5017160;28;20216;-66
2022/11/04 13:19:25;;;;;;;2.08;1.50;;;19.00;55.60;;;;;;5017616;28;20192;-66
2022/11/04 13:21:52;;;;;;;2.28;1.60;;;19.00;55.50;;;;;;5034909;28;20593;-66
2022/11/04 13:24:23;;;;;;;1.45;1.35;;;19.00;55.50;;;;;;5017163;28;20200;-66